sensor_id;sensor_type;location;lat;lon;timestamp;temperature;humidity
47521;DHT22;32291;52.010;4.446;2023-06-10T00:00:27;20.50;99.90
47521;DHT22;32291;52.010;4.446;2023-06-10T00:01:32;20.50;99.90
47521;DHT22;32291;52.010;4.446;2023-06-10T00:02:38;20.50;99.90
47521;DHT22;32291;52.010;4.446;2023-06-10T00:03:40;20.50;99.90
47521;DHT22;32291;52.010;4.446;2023-06-10T00:04:42;20.50;99.90
47521;DHT22;32291;52.010;4.446;2023-06-10T00:05:45;20.40;99.90
47521;DHT22;32291;52.010;4.446;2023-06-10T00:06:46;20.40;99.90
47521;DHT22;32291;52.010;4.446;2023-06-10T00:07:53;20.40;99.90
47521;DHT22;32291;52.010;4.446;2023-06-10T00:08:56;20.40;99.90
47521;DHT22;32291;52.010;4.446;2023-06-10T00:09:58;20.40;99.90
47521;DHT22;32291;52.010;4.446;2023-06-10T00:10:59;20.40;99.90
47521;DHT22;32291;52.010;4.446;2023-06-10T00:12:02;20.40;99.90
47521;DHT22;32291;52.010;4.446;2023-06-10T00:13:08;20.40;99.90
47521;DHT22;32291;52.010;4.446;2023-06-10T00:14:12;20.40;99.90
47521;DHT22;32291;52.010;4.446;2023-06-10T00:15:17;20.40;99.90
47521;DHT22;32291;52.010;4.446;2023-06-10T00:16:19;20.30;99.90
47521;DHT22;32291;52.010;4.446;2023-06-10T00:17:20;20.30;99.90
47521;DHT22;32291;52.010;4.446;2023-06-10T00:18:24;20.30;99.90
47521;DHT22;32291;52.010;4.446;2023-06-10T00:19:27;20.30;99.90
47521;DHT22;32291;52.010;4.446;2023-06-10T00:20:34;20.30;99.90
47521;DHT22;32291;52.010;4.446;2023-06-10T00:21:37;20.30;99.90
47521;DHT22;32291;52.010;4.446;2023-06-10T00:22:41;20.20;99.90
47521;DHT22;32291;52.010;4.446;2023-06-10T00:23:46;20.20;99.90
47521;DHT22;32291;52.010;4.446;2023-06-10T00:24:55;20.20;99.90
47521;DHT22;32291;52.010;4.446;2023-06-10T00:26:00;20.20;99.90
47521;DHT22;32291;52.010;4.446;2023-06-10T00:27:06;20.20;99.90
47521;DHT22;32291;52.010;4.446;2023-06-10T00:28:08;20.20;99.90
47521;DHT22;32291;52.010;4.446;2023-06-10T00:29:09;20.10;99.90
47521;DHT22;32291;52.010;4.446;2023-06-10T00:30:11;20.10;99.90
47521;DHT22;32291;52.010;4.446;2023-06-10T00:31:13;20.10;99.90
47521;DHT22;32291;52.010;4.446;2023-06-10T00:32:14;20.10;99.90
47521;DHT22;32291;52.010;4.446;2023-06-10T00:33:16;20.10;99.90
47521;DHT22;32291;52.010;4.446;2023-06-10T00:34:17;20.10;99.90
47521;DHT22;32291;52.010;4.446;2023-06-10T00:35:19;20.00;99.90
47521;DHT22;32291;52.010;4.446;2023-06-10T00:36:21;20.00;99.90
47521;DHT22;32291;52.010;4.446;2023-06-10T00:37:23;20.00;99.90
47521;DHT22;32291;52.010;4.446;2023-06-10T00:38:24;20.00;99.90
47521;DHT22;32291;52.010;4.446;2023-06-10T00:39:26;20.00;99.90
47521;DHT22;32291;52.010;4.446;2023-06-10T00:40:27;19.90;99.90
47521;DHT22;32291;52.010;4.446;2023-06-10T00:41:29;19.90;99.90
47521;DHT22;32291;52.010;4.446;2023-06-10T00:42:37;19.80;99.90
47521;DHT22;32291;52.010;4.446;2023-06-10T00:43:42;19.80;99.90
47521;DHT22;32291;52.010;4.446;2023-06-10T00:44:43;19.80;99.90
47521;DHT22;32291;52.010;4.446;2023-06-10T00:45:45;19.80;99.90
47521;DHT22;32291;52.010;4.446;2023-06-10T00:46:46;19.80;99.90
47521;DHT22;32291;52.010;4.446;2023-06-10T00:47:54;19.80;99.90
47521;DHT22;32291;52.010;4.446;2023-06-10T00:48:56;19.80;99.90
47521;DHT22;32291;52.010;4.446;2023-06-10T00:49:59;19.80;99.90
47521;DHT22;32291;52.010;4.446;2023-06-10T00:51:01;19.80;99.90
47521;DHT22;32291;52.010;4.446;2023-06-10T00:52:05;19.70;99.90
47521;DHT22;32291;52.010;4.446;2023-06-10T00:53:08;19.80;99.90
47521;DHT22;32291;52.010;4.446;2023-06-10T00:54:10;19.70;99.90
47521;DHT22;32291;52.010;4.446;2023-06-10T00:55:17;19.70;99.90
47521;DHT22;32291;52.010;4.446;2023-06-10T00:56:21;19.70;99.90
47521;DHT22;32291;52.010;4.446;2023-06-10T00:57:23;19.70;99.90
47521;DHT22;32291;52.010;4.446;2023-06-10T00:58:25;19.70;99.90
47521;DHT22;32291;52.010;4.446;2023-06-10T00:59:30;19.60;99.90
47521;DHT22;32291;52.010;4.446;2023-06-10T01:00:35;19.60;99.90
47521;DHT22;32291;52.010;4.446;2023-06-10T01:01:36;19.60;99.90
47521;DHT22;32291;52.010;4.446;2023-06-10T01:02:39;19.60;99.90
47521;DHT22;32291;52.010;4.446;2023-06-10T01:03:40;19.60;99.90
47521;DHT22;32291;52.010;4.446;2023-06-10T01:04:42;19.60;99.90
47521;DHT22;32291;52.010;4.446;2023-06-10T01:05:45;19.60;99.90
47521;DHT22;32291;52.010;4.446;2023-06-10T01:07:19;19.50;99.90
47521;DHT22;32291;52.010;4.446;2023-06-10T01:08:40;19.50;99.90
47521;DHT22;32291;52.010;4.446;2023-06-10T01:09:55;19.50;99.90
47521;DHT22;32291;52.010;4.446;2023-06-10T01:11:18;19.50;99.90
47521;DHT22;32291;52.010;4.446;2023-06-10T01:12:41;19.40;99.90
47521;DHT22;32291;52.010;4.446;2023-06-10T01:13:50;19.40;99.90
47521;DHT22;32291;52.010;4.446;2023-06-10T01:14:54;19.40;99.90
47521;DHT22;32291;52.010;4.446;2023-06-10T01:15:57;19.30;99.90
47521;DHT22;32291;52.010;4.446;2023-06-10T01:17:00;19.40;99.90
47521;DHT22;32291;52.010;4.446;2023-06-10T01:18:10;19.50;99.90
47521;DHT22;32291;52.010;4.446;2023-06-10T01:19:32;19.40;99.90
47521;DHT22;32291;52.010;4.446;2023-06-10T01:20:37;19.40;99.90
47521;DHT22;32291;52.010;4.446;2023-06-10T01:21:47;19.40;99.90
47521;DHT22;32291;52.010;4.446;2023-06-10T01:22:49;19.30;99.90
47521;DHT22;32291;52.010;4.446;2023-06-10T01:23:58;19.30;99.90
47521;DHT22;32291;52.010;4.446;2023-06-10T01:25:00;19.30;99.90
47521;DHT22;32291;52.010;4.446;2023-06-10T01:26:09;19.30;99.90
47521;DHT22;32291;52.010;4.446;2023-06-10T01:27:15;19.20;99.90
47521;DHT22;32291;52.010;4.446;2023-06-10T01:29:37;19.20;99.90
47521;DHT22;32291;52.010;4.446;2023-06-10T01:32:47;19.20;99.90
47521;DHT22;32291;52.010;4.446;2023-06-10T01:33:54;19.10;99.90
47521;DHT22;32291;52.010;4.446;2023-06-10T01:34:57;19.10;99.90
47521;DHT22;32291;52.010;4.446;2023-06-10T01:36:01;19.10;99.90
47521;DHT22;32291;52.010;4.446;2023-06-10T01:37:04;19.10;99.90
47521;DHT22;32291;52.010;4.446;2023-06-10T01:38:12;19.10;99.90
47521;DHT22;32291;52.010;4.446;2023-06-10T01:39:22;19.00;99.90
47521;DHT22;32291;52.010;4.446;2023-06-10T01:40:26;19.00;99.90
47521;DHT22;32291;52.010;4.446;2023-06-10T01:41:31;19.00;99.90
47521;DHT22;32291;52.010;4.446;2023-06-10T01:42:33;19.00;99.90
47521;DHT22;32291;52.010;4.446;2023-06-10T01:43:38;19.00;99.90
47521;DHT22;32291;52.010;4.446;2023-06-10T01:44:40;19.00;99.90
47521;DHT22;32291;52.010;4.446;2023-06-10T01:45:45;19.00;99.90
47521;DHT22;32291;52.010;4.446;2023-06-10T01:46:47;19.00;99.90
47521;DHT22;32291;52.010;4.446;2023-06-10T01:47:48;18.90;99.90
47521;DHT22;32291;52.010;4.446;2023-06-10T01:48:50;18.90;99.90
47521;DHT22;32291;52.010;4.446;2023-06-10T01:49:52;18.90;99.90
47521;DHT22;32291;52.010;4.446;2023-06-10T01:50:53;18.90;99.90
47521;DHT22;32291;52.010;4.446;2023-06-10T01:51:57;18.90;99.90
47521;DHT22;32291;52.010;4.446;2023-06-10T01:53:07;18.90;99.90
47521;DHT22;32291;52.010;4.446;2023-06-10T01:54:11;18.90;99.90
47521;DHT22;32291;52.010;4.446;2023-06-10T01:55:15;18.90;99.90
47521;DHT22;32291;52.010;4.446;2023-06-10T01:56:16;18.80;99.90
47521;DHT22;32291;52.010;4.446;2023-06-10T01:57:21;18.80;99.90
47521;DHT22;32291;52.010;4.446;2023-06-10T01:58:23;18.80;99.90
47521;DHT22;32291;52.010;4.446;2023-06-10T01:59:24;18.70;99.90
47521;DHT22;32291;52.010;4.446;2023-06-10T02:00:26;18.80;99.90
47521;DHT22;32291;52.010;4.446;2023-06-10T02:01:28;18.80;99.90
47521;DHT22;32291;52.010;4.446;2023-06-10T02:02:33;18.70;99.90
47521;DHT22;32291;52.010;4.446;2023-06-10T02:03:37;18.70;99.90
47521;DHT22;32291;52.010;4.446;2023-06-10T02:04:39;18.70;99.90
47521;DHT22;32291;52.010;4.446;2023-06-10T02:05:40;18.70;99.90
47521;DHT22;32291;52.010;4.446;2023-06-10T02:06:42;18.70;99.90
47521;DHT22;32291;52.010;4.446;2023-06-10T02:07:43;18.60;99.90
47521;DHT22;32291;52.010;4.446;2023-06-10T02:08:45;18.60;99.90
47521;DHT22;32291;52.010;4.446;2023-06-10T02:09:46;18.60;99.90
47521;DHT22;32291;52.010;4.446;2023-06-10T02:10:50;18.60;99.90
47521;DHT22;32291;52.010;4.446;2023-06-10T02:11:52;18.60;99.90
47521;DHT22;32291;52.010;4.446;2023-06-10T02:12:53;18.60;99.90
47521;DHT22;32291;52.010;4.446;2023-06-10T02:13:55;18.60;99.90
47521;DHT22;32291;52.010;4.446;2023-06-10T02:14:56;18.50;99.90
47521;DHT22;32291;52.010;4.446;2023-06-10T02:15:58;18.60;99.90
47521;DHT22;32291;52.010;4.446;2023-06-10T02:16:59;18.60;99.90
47521;DHT22;32291;52.010;4.446;2023-06-10T02:18:04;18.50;99.90
47521;DHT22;32291;52.010;4.446;2023-06-10T02:19:12;18.60;99.90
47521;DHT22;32291;52.010;4.446;2023-06-10T02:20:14;18.50;99.90
47521;DHT22;32291;52.010;4.446;2023-06-10T02:21:15;18.50;99.90
47521;DHT22;32291;52.010;4.446;2023-06-10T02:22:17;18.50;99.90
47521;DHT22;32291;52.010;4.446;2023-06-10T02:23:23;18.50;99.90
47521;DHT22;32291;52.010;4.446;2023-06-10T02:24:24;18.50;99.90
47521;DHT22;32291;52.010;4.446;2023-06-10T02:25:26;18.40;99.90
47521;DHT22;32291;52.010;4.446;2023-06-10T02:26:28;18.40;99.90
47521;DHT22;32291;52.010;4.446;2023-06-10T02:27:29;18.40;99.90
47521;DHT22;32291;52.010;4.446;2023-06-10T02:28:34;18.40;99.90
47521;DHT22;32291;52.010;4.446;2023-06-10T02:29:35;18.40;99.90
47521;DHT22;32291;52.010;4.446;2023-06-10T02:30:41;18.40;99.90
47521;DHT22;32291;52.010;4.446;2023-06-10T02:31:43;18.40;99.90
47521;DHT22;32291;52.010;4.446;2023-06-10T02:32:44;18.40;99.90
47521;DHT22;32291;52.010;4.446;2023-06-10T02:33:48;18.40;99.90
47521;DHT22;32291;52.010;4.446;2023-06-10T02:34:53;18.30;99.90
47521;DHT22;32291;52.010;4.446;2023-06-10T02:35:55;18.30;99.90
47521;DHT22;32291;52.010;4.446;2023-06-10T02:36:56;18.30;99.90
47521;DHT22;32291;52.010;4.446;2023-06-10T02:37:58;18.30;99.90
47521;DHT22;32291;52.010;4.446;2023-06-10T02:38:59;18.30;99.90
47521;DHT22;32291;52.010;4.446;2023-06-10T02:40:04;18.30;99.90
47521;DHT22;32291;52.010;4.446;2023-06-10T02:41:07;18.20;99.90
47521;DHT22;32291;52.010;4.446;2023-06-10T02:42:09;18.20;99.90
47521;DHT22;32291;52.010;4.446;2023-06-10T02:43:11;18.20;99.90
47521;DHT22;32291;52.010;4.446;2023-06-10T02:44:13;18.30;99.90
47521;DHT22;32291;52.010;4.446;2023-06-10T02:45:14;18.20;99.90
47521;DHT22;32291;52.010;4.446;2023-06-10T02:46:18;18.20;99.90
47521;DHT22;32291;52.010;4.446;2023-06-10T02:47:23;18.20;99.90
47521;DHT22;32291;52.010;4.446;2023-06-10T02:48:24;18.20;99.90
47521;DHT22;32291;52.010;4.446;2023-06-10T02:49:26;18.20;99.90
47521;DHT22;32291;52.010;4.446;2023-06-10T02:50:30;18.10;99.90
47521;DHT22;32291;52.010;4.446;2023-06-10T02:51:38;18.10;99.90
47521;DHT22;32291;52.010;4.446;2023-06-10T02:52:43;18.10;99.90
47521;DHT22;32291;52.010;4.446;2023-06-10T02:53:45;18.10;99.90
47521;DHT22;32291;52.010;4.446;2023-06-10T02:54:51;18.10;99.90
47521;DHT22;32291;52.010;4.446;2023-06-10T02:55:52;18.10;99.90
47521;DHT22;32291;52.010;4.446;2023-06-10T02:56:54;18.10;99.90
47521;DHT22;32291;52.010;4.446;2023-06-10T02:57:56;18.10;99.90
47521;DHT22;32291;52.010;4.446;2023-06-10T02:58:58;18.00;99.90
47521;DHT22;32291;52.010;4.446;2023-06-10T03:00:00;18.00;99.90
47521;DHT22;32291;52.010;4.446;2023-06-10T03:01:03;18.00;99.90
47521;DHT22;32291;52.010;4.446;2023-06-10T03:02:05;18.00;99.90
47521;DHT22;32291;52.010;4.446;2023-06-10T03:03:07;18.00;99.90
47521;DHT22;32291;52.010;4.446;2023-06-10T03:04:09;18.00;99.90
47521;DHT22;32291;52.010;4.446;2023-06-10T03:05:11;18.00;99.90
47521;DHT22;32291;52.010;4.446;2023-06-10T03:06:14;18.00;99.90
47521;DHT22;32291;52.010;4.446;2023-06-10T03:07:15;18.00;99.90
47521;DHT22;32291;52.010;4.446;2023-06-10T03:08:17;18.00;99.90
47521;DHT22;32291;52.010;4.446;2023-06-10T03:09:21;17.90;99.90
47521;DHT22;32291;52.010;4.446;2023-06-10T03:10:22;17.90;99.90
47521;DHT22;32291;52.010;4.446;2023-06-10T03:11:24;17.90;99.90
47521;DHT22;32291;52.010;4.446;2023-06-10T03:12:27;17.90;99.90
47521;DHT22;32291;52.010;4.446;2023-06-10T03:13:28;17.90;99.90
47521;DHT22;32291;52.010;4.446;2023-06-10T03:14:29;17.90;99.90
47521;DHT22;32291;52.010;4.446;2023-06-10T03:15:31;17.90;99.90
47521;DHT22;32291;52.010;4.446;2023-06-10T03:16:34;17.90;99.90
47521;DHT22;32291;52.010;4.446;2023-06-10T03:17:38;17.90;99.90
47521;DHT22;32291;52.010;4.446;2023-06-10T03:18:39;17.90;99.90
47521;DHT22;32291;52.010;4.446;2023-06-10T03:19:41;17.80;99.90
47521;DHT22;32291;52.010;4.446;2023-06-10T03:20:44;17.80;99.90
47521;DHT22;32291;52.010;4.446;2023-06-10T03:21:50;17.80;99.90
47521;DHT22;32291;52.010;4.446;2023-06-10T03:22:59;17.80;99.90
47521;DHT22;32291;52.010;4.446;2023-06-10T03:24:04;17.80;99.90
47521;DHT22;32291;52.010;4.446;2023-06-10T03:25:06;17.80;99.90
47521;DHT22;32291;52.010;4.446;2023-06-10T03:26:10;17.80;99.90
47521;DHT22;32291;52.010;4.446;2023-06-10T03:27:13;17.70;99.90
47521;DHT22;32291;52.010;4.446;2023-06-10T03:28:16;17.70;99.90
47521;DHT22;32291;52.010;4.446;2023-06-10T03:29:17;17.70;99.90
47521;DHT22;32291;52.010;4.446;2023-06-10T03:30:24;17.70;99.90
47521;DHT22;32291;52.010;4.446;2023-06-10T03:31:28;17.70;99.90
47521;DHT22;32291;52.010;4.446;2023-06-10T03:32:30;17.70;99.90
47521;DHT22;32291;52.010;4.446;2023-06-10T03:33:32;17.70;99.90
47521;DHT22;32291;52.010;4.446;2023-06-10T03:34:34;17.70;99.90
47521;DHT22;32291;52.010;4.446;2023-06-10T03:35:37;17.70;99.90
47521;DHT22;32291;52.010;4.446;2023-06-10T03:36:39;17.60;99.90
47521;DHT22;32291;52.010;4.446;2023-06-10T03:37:43;17.70;99.90
47521;DHT22;32291;52.010;4.446;2023-06-10T03:38:45;17.70;99.90
47521;DHT22;32291;52.010;4.446;2023-06-10T03:39:46;17.60;99.90
47521;DHT22;32291;52.010;4.446;2023-06-10T03:40:55;17.70;99.90
47521;DHT22;32291;52.010;4.446;2023-06-10T03:41:57;17.60;99.90
47521;DHT22;32291;52.010;4.446;2023-06-10T03:42:58;17.60;99.90
47521;DHT22;32291;52.010;4.446;2023-06-10T03:44:00;17.60;99.90
47521;DHT22;32291;52.010;4.446;2023-06-10T03:45:10;17.70;99.90
47521;DHT22;32291;52.010;4.446;2023-06-10T03:46:12;17.60;99.90
47521;DHT22;32291;52.010;4.446;2023-06-10T03:47:13;17.60;99.90
47521;DHT22;32291;52.010;4.446;2023-06-10T03:48:15;17.60;99.90
47521;DHT22;32291;52.010;4.446;2023-06-10T03:49:17;17.60;99.90
47521;DHT22;32291;52.010;4.446;2023-06-10T03:50:24;17.60;99.90
47521;DHT22;32291;52.010;4.446;2023-06-10T03:51:27;17.60;99.90
47521;DHT22;32291;52.010;4.446;2023-06-10T03:52:28;17.60;99.90
47521;DHT22;32291;52.010;4.446;2023-06-10T03:53:38;17.60;99.90
47521;DHT22;32291;52.010;4.446;2023-06-10T03:54:39;17.60;99.90
47521;DHT22;32291;52.010;4.446;2023-06-10T03:55:41;17.60;99.90
47521;DHT22;32291;52.010;4.446;2023-06-10T03:56:42;17.60;99.90
47521;DHT22;32291;52.010;4.446;2023-06-10T03:57:44;17.60;99.90
47521;DHT22;32291;52.010;4.446;2023-06-10T03:58:45;17.60;99.90
47521;DHT22;32291;52.010;4.446;2023-06-10T03:59:47;17.60;99.90
47521;DHT22;32291;52.010;4.446;2023-06-10T04:00:52;17.60;99.90
47521;DHT22;32291;52.010;4.446;2023-06-10T04:01:53;17.60;99.90
47521;DHT22;32291;52.010;4.446;2023-06-10T04:02:55;17.60;99.90
47521;DHT22;32291;52.010;4.446;2023-06-10T04:03:59;17.60;99.90
47521;DHT22;32291;52.010;4.446;2023-06-10T04:05:02;17.60;99.90
47521;DHT22;32291;52.010;4.446;2023-06-10T04:06:04;17.60;99.90
47521;DHT22;32291;52.010;4.446;2023-06-10T04:07:09;17.60;99.90
47521;DHT22;32291;52.010;4.446;2023-06-10T04:08:10;17.60;99.90
47521;DHT22;32291;52.010;4.446;2023-06-10T04:09:12;17.60;99.90
47521;DHT22;32291;52.010;4.446;2023-06-10T04:10:14;17.60;99.90
47521;DHT22;32291;52.010;4.446;2023-06-10T04:11:16;17.60;99.90
47521;DHT22;32291;52.010;4.446;2023-06-10T04:12:20;17.60;99.90
47521;DHT22;32291;52.010;4.446;2023-06-10T04:13:22;17.60;99.90
47521;DHT22;32291;52.010;4.446;2023-06-10T04:14:24;17.60;99.90
47521;DHT22;32291;52.010;4.446;2023-06-10T04:15:26;17.60;99.90
47521;DHT22;32291;52.010;4.446;2023-06-10T04:16:27;17.60;99.90
47521;DHT22;32291;52.010;4.446;2023-06-10T04:17:29;17.70;99.90
47521;DHT22;32291;52.010;4.446;2023-06-10T04:18:33;17.60;99.90
47521;DHT22;32291;52.010;4.446;2023-06-10T04:19:35;17.70;99.90
47521;DHT22;32291;52.010;4.446;2023-06-10T04:20:37;17.70;99.90
47521;DHT22;32291;52.010;4.446;2023-06-10T04:21:38;17.70;99.90
47521;DHT22;32291;52.010;4.446;2023-06-10T04:22:43;17.70;99.90
47521;DHT22;32291;52.010;4.446;2023-06-10T04:23:45;17.70;99.90
47521;DHT22;32291;52.010;4.446;2023-06-10T04:24:46;17.70;99.90
47521;DHT22;32291;52.010;4.446;2023-06-10T04:25:50;17.70;99.90
47521;DHT22;32291;52.010;4.446;2023-06-10T04:26:54;17.70;99.90
47521;DHT22;32291;52.010;4.446;2023-06-10T04:27:56;17.70;99.90
47521;DHT22;32291;52.010;4.446;2023-06-10T04:28:57;17.70;99.90
47521;DHT22;32291;52.010;4.446;2023-06-10T04:29:58;17.70;99.90
47521;DHT22;32291;52.010;4.446;2023-06-10T04:31:00;17.80;99.90
47521;DHT22;32291;52.010;4.446;2023-06-10T04:32:07;17.70;99.90
47521;DHT22;32291;52.010;4.446;2023-06-10T04:33:09;17.80;99.90
47521;DHT22;32291;52.010;4.446;2023-06-10T04:34:10;17.80;99.90
47521;DHT22;32291;52.010;4.446;2023-06-10T04:35:12;17.80;99.90
47521;DHT22;32291;52.010;4.446;2023-06-10T04:36:15;17.80;99.90
47521;DHT22;32291;52.010;4.446;2023-06-10T04:37:17;17.80;99.90
47521;DHT22;32291;52.010;4.446;2023-06-10T04:38:22;17.80;99.90
47521;DHT22;32291;52.010;4.446;2023-06-10T04:39:24;17.80;99.90
47521;DHT22;32291;52.010;4.446;2023-06-10T04:40:25;17.80;99.90
47521;DHT22;32291;52.010;4.446;2023-06-10T04:41:26;17.80;99.90
47521;DHT22;32291;52.010;4.446;2023-06-10T04:42:28;17.80;99.90
47521;DHT22;32291;52.010;4.446;2023-06-10T04:43:29;17.80;99.90
47521;DHT22;32291;52.010;4.446;2023-06-10T04:44:34;17.90;99.90
47521;DHT22;32291;52.010;4.446;2023-06-10T04:45:36;17.90;99.90
47521;DHT22;32291;52.010;4.446;2023-06-10T04:46:38;17.90;99.90
47521;DHT22;32291;52.010;4.446;2023-06-10T04:47:39;17.90;99.90
47521;DHT22;32291;52.010;4.446;2023-06-10T04:48:41;17.90;99.90
47521;DHT22;32291;52.010;4.446;2023-06-10T04:49:43;17.90;99.90
47521;DHT22;32291;52.010;4.446;2023-06-10T04:50:50;17.90;99.90
47521;DHT22;32291;52.010;4.446;2023-06-10T04:51:52;18.00;99.90
47521;DHT22;32291;52.010;4.446;2023-06-10T04:52:54;18.00;99.90
47521;DHT22;32291;52.010;4.446;2023-06-10T04:53:58;18.00;99.90
47521;DHT22;32291;52.010;4.446;2023-06-10T04:55:03;18.00;99.90
47521;DHT22;32291;52.010;4.446;2023-06-10T04:56:09;18.10;99.90
47521;DHT22;32291;52.010;4.446;2023-06-10T04:57:11;18.10;99.90
47521;DHT22;32291;52.010;4.446;2023-06-10T04:58:14;18.10;99.90
47521;DHT22;32291;52.010;4.446;2023-06-10T04:59:16;18.10;99.90
47521;DHT22;32291;52.010;4.446;2023-06-10T05:00:18;18.10;99.90
47521;DHT22;32291;52.010;4.446;2023-06-10T05:01:19;18.20;99.90
47521;DHT22;32291;52.010;4.446;2023-06-10T05:02:22;18.20;99.90
47521;DHT22;32291;52.010;4.446;2023-06-10T05:03:24;18.20;99.90
47521;DHT22;32291;52.010;4.446;2023-06-10T05:04:25;18.30;99.90
47521;DHT22;32291;52.010;4.446;2023-06-10T05:05:28;18.20;99.90
47521;DHT22;32291;52.010;4.446;2023-06-10T05:06:30;18.20;99.90
47521;DHT22;32291;52.010;4.446;2023-06-10T05:07:31;18.30;99.90
47521;DHT22;32291;52.010;4.446;2023-06-10T05:08:35;18.20;99.90
47521;DHT22;32291;52.010;4.446;2023-06-10T05:09:40;18.30;99.90
47521;DHT22;32291;52.010;4.446;2023-06-10T05:10:41;18.30;99.90
47521;DHT22;32291;52.010;4.446;2023-06-10T05:11:43;18.30;99.90
47521;DHT22;32291;52.010;4.446;2023-06-10T05:12:45;18.30;99.90
47521;DHT22;32291;52.010;4.446;2023-06-10T05:13:47;18.30;99.90
47521;DHT22;32291;52.010;4.446;2023-06-10T05:14:49;18.40;99.90
47521;DHT22;32291;52.010;4.446;2023-06-10T05:15:54;18.40;99.90
47521;DHT22;32291;52.010;4.446;2023-06-10T05:16:55;18.40;99.90
47521;DHT22;32291;52.010;4.446;2023-06-10T05:17:57;18.50;99.90
47521;DHT22;32291;52.010;4.446;2023-06-10T05:18:59;18.50;99.90
47521;DHT22;32291;52.010;4.446;2023-06-10T05:20:02;18.50;99.90
47521;DHT22;32291;52.010;4.446;2023-06-10T05:21:04;18.50;99.90
47521;DHT22;32291;52.010;4.446;2023-06-10T05:22:07;18.50;99.90
47521;DHT22;32291;52.010;4.446;2023-06-10T05:23:08;18.60;99.90
47521;DHT22;32291;52.010;4.446;2023-06-10T05:24:10;18.60;99.90
47521;DHT22;32291;52.010;4.446;2023-06-10T05:25:11;18.60;99.90
47521;DHT22;32291;52.010;4.446;2023-06-10T05:26:13;18.60;99.90
47521;DHT22;32291;52.010;4.446;2023-06-10T05:27:15;18.70;99.90
47521;DHT22;32291;52.010;4.446;2023-06-10T05:28:16;18.60;99.90
47521;DHT22;32291;52.010;4.446;2023-06-10T05:29:20;18.70;99.90
47521;DHT22;32291;52.010;4.446;2023-06-10T05:30:22;18.70;99.90
47521;DHT22;32291;52.010;4.446;2023-06-10T05:31:25;18.80;99.90
47521;DHT22;32291;52.010;4.446;2023-06-10T05:32:27;18.80;99.90
47521;DHT22;32291;52.010;4.446;2023-06-10T05:33:29;18.70;99.90
47521;DHT22;32291;52.010;4.446;2023-06-10T05:34:34;18.90;99.90
47521;DHT22;32291;52.010;4.446;2023-06-10T05:35:38;18.90;99.90
47521;DHT22;32291;52.010;4.446;2023-06-10T05:36:39;18.90;99.90
47521;DHT22;32291;52.010;4.446;2023-06-10T05:37:41;19.00;99.90
47521;DHT22;32291;52.010;4.446;2023-06-10T05:38:44;19.00;99.90
47521;DHT22;32291;52.010;4.446;2023-06-10T05:39:47;18.90;99.90
47521;DHT22;32291;52.010;4.446;2023-06-10T05:40:49;19.10;99.90
47521;DHT22;32291;52.010;4.446;2023-06-10T05:41:53;19.10;99.90
47521;DHT22;32291;52.010;4.446;2023-06-10T05:42:54;19.10;99.90
47521;DHT22;32291;52.010;4.446;2023-06-10T05:43:59;19.10;99.90
47521;DHT22;32291;52.010;4.446;2023-06-10T05:45:00;19.20;99.90
47521;DHT22;32291;52.010;4.446;2023-06-10T05:46:07;19.20;99.90
47521;DHT22;32291;52.010;4.446;2023-06-10T05:47:09;19.20;99.90
47521;DHT22;32291;52.010;4.446;2023-06-10T05:48:10;19.30;99.90
47521;DHT22;32291;52.010;4.446;2023-06-10T05:49:12;19.30;99.90
47521;DHT22;32291;52.010;4.446;2023-06-10T05:50:13;19.30;99.90
47521;DHT22;32291;52.010;4.446;2023-06-10T05:51:16;19.40;99.90
47521;DHT22;32291;52.010;4.446;2023-06-10T05:52:25;19.40;99.90
47521;DHT22;32291;52.010;4.446;2023-06-10T05:53:27;19.40;99.90
47521;DHT22;32291;52.010;4.446;2023-06-10T05:54:28;19.40;99.90
47521;DHT22;32291;52.010;4.446;2023-06-10T05:55:29;19.50;99.90
47521;DHT22;32291;52.010;4.446;2023-06-10T05:56:34;19.50;99.90
47521;DHT22;32291;52.010;4.446;2023-06-10T05:57:35;19.50;99.90
47521;DHT22;32291;52.010;4.446;2023-06-10T05:58:42;19.50;99.90
47521;DHT22;32291;52.010;4.446;2023-06-10T05:59:44;19.60;99.90
47521;DHT22;32291;52.010;4.446;2023-06-10T06:00:46;19.60;99.90
47521;DHT22;32291;52.010;4.446;2023-06-10T06:01:47;19.70;99.90
47521;DHT22;32291;52.010;4.446;2023-06-10T06:02:56;19.70;99.90
47521;DHT22;32291;52.010;4.446;2023-06-10T06:03:59;19.80;99.90
47521;DHT22;32291;52.010;4.446;2023-06-10T06:05:04;19.80;99.90
47521;DHT22;32291;52.010;4.446;2023-06-10T06:06:05;19.90;99.90
47521;DHT22;32291;52.010;4.446;2023-06-10T06:07:07;19.90;99.90
47521;DHT22;32291;52.010;4.446;2023-06-10T06:08:09;19.90;99.90
47521;DHT22;32291;52.010;4.446;2023-06-10T06:09:11;19.90;99.90
47521;DHT22;32291;52.010;4.446;2023-06-10T06:10:13;20.00;99.90
47521;DHT22;32291;52.010;4.446;2023-06-10T06:11:15;20.00;99.90
47521;DHT22;32291;52.010;4.446;2023-06-10T06:12:19;20.10;99.90
47521;DHT22;32291;52.010;4.446;2023-06-10T06:13:22;20.10;99.90
47521;DHT22;32291;52.010;4.446;2023-06-10T06:14:23;20.20;99.90
47521;DHT22;32291;52.010;4.446;2023-06-10T06:15:25;20.20;99.90
47521;DHT22;32291;52.010;4.446;2023-06-10T06:16:26;20.20;99.90
47521;DHT22;32291;52.010;4.446;2023-06-10T06:17:28;20.20;99.90
47521;DHT22;32291;52.010;4.446;2023-06-10T06:18:29;20.30;99.90
47521;DHT22;32291;52.010;4.446;2023-06-10T06:19:31;20.30;99.90
47521;DHT22;32291;52.010;4.446;2023-06-10T06:20:33;20.40;99.90
47521;DHT22;32291;52.010;4.446;2023-06-10T06:21:34;20.50;99.90
47521;DHT22;32291;52.010;4.446;2023-06-10T06:22:36;20.50;99.90
47521;DHT22;32291;52.010;4.446;2023-06-10T06:23:37;20.60;99.90
47521;DHT22;32291;52.010;4.446;2023-06-10T06:24:39;20.70;99.90
47521;DHT22;32291;52.010;4.446;2023-06-10T06:25:41;20.70;99.90
47521;DHT22;32291;52.010;4.446;2023-06-10T06:26:43;20.70;99.90
47521;DHT22;32291;52.010;4.446;2023-06-10T06:27:46;20.80;99.90
47521;DHT22;32291;52.010;4.446;2023-06-10T06:28:47;20.80;99.90
47521;DHT22;32291;52.010;4.446;2023-06-10T06:29:49;20.90;99.90
47521;DHT22;32291;52.010;4.446;2023-06-10T06:30:51;21.00;99.90
47521;DHT22;32291;52.010;4.446;2023-06-10T06:31:53;21.00;99.90
47521;DHT22;32291;52.010;4.446;2023-06-10T06:32:54;21.10;99.90
47521;DHT22;32291;52.010;4.446;2023-06-10T06:33:56;21.20;99.90
47521;DHT22;32291;52.010;4.446;2023-06-10T06:34:57;21.20;99.90
47521;DHT22;32291;52.010;4.446;2023-06-10T06:35:59;21.40;99.90
47521;DHT22;32291;52.010;4.446;2023-06-10T06:37:01;21.40;99.90
47521;DHT22;32291;52.010;4.446;2023-06-10T06:38:03;21.50;99.90
47521;DHT22;32291;52.010;4.446;2023-06-10T06:39:05;21.80;99.90
47521;DHT22;32291;52.010;4.446;2023-06-10T06:40:07;22.10;99.90
47521;DHT22;32291;52.010;4.446;2023-06-10T06:41:12;22.30;99.90
47521;DHT22;32291;52.010;4.446;2023-06-10T06:42:13;22.60;99.90